createdAt,value
2019-02-26T00:00:10.274Z,0.00
2019-02-26T00:01:09.648Z,0.00
2019-02-26T00:02:09.614Z,0.00
2019-02-26T00:03:09.574Z,0.00
2019-02-26T00:04:09.539Z,0.00
2019-02-26T00:05:09.499Z,0.00
2019-02-26T00:06:09.465Z,0.00
2019-02-26T00:07:09.425Z,0.00
2019-02-26T00:08:09.396Z,0.00
2019-02-26T00:09:09.349Z,0.00
2019-02-26T00:10:09.320Z,0.00
2019-02-26T00:11:10.813Z,0.00
2019-02-26T00:12:09.244Z,0.00
2019-02-26T00:13:09.209Z,0.00
2019-02-26T00:14:13.140Z,0.00
2019-02-26T00:15:09.153Z,0.00
2019-02-26T00:16:10.547Z,0.00
2019-02-26T00:17:11.163Z,0.00
2019-02-26T00:18:11.567Z,0.00
2019-02-26T00:19:09.829Z,0.00
2019-02-26T00:20:10.951Z,0.00
2019-02-26T00:21:08.926Z,0.00
2019-02-26T00:22:09.528Z,0.00
2019-02-26T00:23:08.850Z,0.00
2019-02-26T00:24:09.900Z,0.00
2019-02-26T00:25:10.453Z,0.00
2019-02-26T00:26:10.483Z,0.00
2019-02-26T00:27:09.732Z,0.00
2019-02-26T00:28:08.664Z,0.00
2019-02-26T00:29:08.630Z,0.00
2019-02-26T00:30:09.620Z,0.00
2019-02-26T00:31:08.555Z,0.00
2019-02-26T00:32:10.093Z,0.00
2019-02-26T00:33:08.477Z,0.00
2019-02-26T00:34:10.683Z,0.00
2019-02-26T00:35:08.409Z,0.00
2019-02-26T00:36:08.968Z,0.00
2019-02-26T00:37:08.483Z,0.00
2019-02-26T00:38:08.953Z,0.00
2019-02-26T00:39:08.266Z,0.00
2019-02-26T00:40:09.970Z,0.00
2019-02-26T00:41:08.190Z,0.00
2019-02-26T00:42:08.157Z,0.00
2019-02-26T00:43:08.124Z,0.00
2019-02-26T00:44:08.079Z,0.00
2019-02-26T00:45:08.051Z,0.00
2019-02-26T00:46:09.876Z,0.00
2019-02-26T00:47:08.938Z,0.00
2019-02-26T00:48:07.932Z,0.00
2019-02-26T00:49:07.893Z,0.00
2019-02-26T00:50:09.549Z,0.00
2019-02-26T00:51:07.834Z,0.00
2019-02-26T00:52:08.708Z,0.00
2019-02-26T00:53:07.750Z,0.00
2019-02-26T00:54:07.715Z,0.00
2019-02-26T00:55:09.367Z,0.00
2019-02-26T00:56:08.380Z,0.00
2019-02-26T00:57:08.615Z,0.00
2019-02-26T00:58:08.447Z,0.00
2019-02-26T00:59:07.532Z,0.00
2019-02-26T01:00:08.112Z,0.00
2019-02-26T01:01:10.220Z,0.00
2019-02-26T01:02:07.430Z,0.00
2019-02-26T01:03:09.275Z,0.00
2019-02-26T01:04:07.346Z,0.00
2019-02-26T01:05:08.724Z,0.00
2019-02-26T01:06:07.997Z,0.00
2019-02-26T01:07:07.602Z,0.00
2019-02-26T01:08:10.536Z,0.00
2019-02-26T01:09:09.340Z,0.00
2019-02-26T01:10:07.133Z,0.00
2019-02-26T01:11:08.287Z,0.00
2019-02-26T01:12:09.033Z,0.00
2019-02-26T01:13:07.337Z,0.00
2019-02-26T01:14:06.981Z,0.00
2019-02-26T01:15:07.809Z,0.00
2019-02-26T01:16:06.901Z,0.00
2019-02-26T01:17:08.133Z,0.00
2019-02-26T01:18:06.837Z,0.00
2019-02-26T01:19:08.540Z,0.00
2019-02-26T01:20:06.762Z,0.00
2019-02-26T01:21:06.709Z,0.00
2019-02-26T01:22:06.676Z,0.00
2019-02-26T01:23:06.656Z,0.00
2019-02-26T01:24:08.584Z,0.00
2019-02-26T01:25:06.572Z,0.00
2019-02-26T01:26:06.538Z,0.00
2019-02-26T01:27:06.498Z,0.00
2019-02-26T01:28:06.463Z,0.00
2019-02-26T01:29:06.425Z,0.00
2019-02-26T01:30:06.389Z,0.00
2019-02-26T01:31:07.388Z,0.00
2019-02-26T01:32:08.911Z,0.00
2019-02-26T01:33:08.002Z,0.00
2019-02-26T01:34:06.245Z,0.00
2019-02-26T01:35:08.195Z,0.00
2019-02-26T01:36:06.165Z,0.00
2019-02-26T01:37:08.087Z,0.00
2019-02-26T01:38:06.100Z,0.00
2019-02-26T01:39:09.307Z,0.00
2019-02-26T01:40:09.396Z,0.00
2019-02-26T01:41:05.983Z,0.00
2019-02-26T01:42:05.938Z,0.00
2019-02-26T01:43:05.905Z,0.00
2019-02-26T01:44:05.878Z,0.00
2019-02-26T01:45:05.838Z,0.00
2019-02-26T01:46:07.774Z,0.00
2019-02-26T01:47:05.762Z,0.00
2019-02-26T01:48:06.331Z,0.00
2019-02-26T01:49:05.685Z,0.00
2019-02-26T01:50:06.936Z,0.00
2019-02-26T01:51:05.619Z,0.00
2019-02-26T01:52:06.219Z,0.00
2019-02-26T01:53:05.550Z,0.00
2019-02-26T01:54:07.521Z,0.00
2019-02-26T01:55:05.476Z,0.00
2019-02-26T01:56:05.431Z,0.00
2019-02-26T01:57:08.563Z,0.00
2019-02-26T01:58:05.361Z,0.00
2019-02-26T01:59:05.325Z,0.00
2019-02-26T02:00:06.922Z,0.00
2019-02-26T02:01:05.246Z,0.00
2019-02-26T02:02:05.210Z,0.00
2019-02-26T02:03:05.180Z,0.00
2019-02-26T02:04:05.135Z,0.00
2019-02-26T02:05:07.042Z,0.00
2019-02-26T02:06:06.248Z,0.00
2019-02-26T02:07:06.036Z,0.00
2019-02-26T02:08:07.254Z,0.00
2019-02-26T02:09:04.952Z,0.00
2019-02-26T02:10:04.912Z,0.00
2019-02-26T02:11:07.408Z,0.00
2019-02-26T02:12:06.593Z,0.00
2019-02-26T02:13:07.058Z,0.00
2019-02-26T02:14:06.036Z,0.00
2019-02-26T02:15:04.736Z,0.00
2019-02-26T02:16:06.642Z,0.00
2019-02-26T02:17:06.045Z,0.00
2019-02-26T02:18:06.215Z,0.00
2019-02-26T02:19:04.583Z,0.00
2019-02-26T02:20:07.703Z,0.00
2019-02-26T02:21:04.506Z,0.00
2019-02-26T02:22:04.471Z,0.00
2019-02-26T02:23:05.352Z,0.00
2019-02-26T02:24:05.717Z,0.00
2019-02-26T02:25:04.362Z,0.00
2019-02-26T02:26:06.486Z,0.00
2019-02-26T02:27:04.281Z,0.00
2019-02-26T02:28:04.568Z,0.00
2019-02-26T02:29:04.208Z,0.00
2019-02-26T02:30:04.184Z,0.00
2019-02-26T02:31:04.145Z,0.00
2019-02-26T02:32:04.953Z,0.00
2019-02-26T02:33:04.075Z,0.00
2019-02-26T02:34:04.028Z,0.00
2019-02-26T02:35:06.825Z,0.00
2019-02-26T02:36:03.963Z,0.00
2019-02-26T02:37:03.919Z,0.00
2019-02-26T02:38:04.960Z,0.00
2019-02-26T02:39:03.860Z,0.00
2019-02-26T02:40:03.817Z,0.00
2019-02-26T02:41:03.783Z,0.00
2019-02-26T02:42:03.733Z,0.00
2019-02-26T02:43:04.442Z,0.00
2019-02-26T02:44:03.658Z,0.00
2019-02-26T02:45:05.236Z,0.00
2019-02-26T02:46:03.589Z,0.00
2019-02-26T02:47:04.309Z,0.00
2019-02-26T02:48:06.235Z,0.00
2019-02-26T02:49:04.741Z,0.00
2019-02-26T02:50:05.590Z,0.00
2019-02-26T02:51:05.454Z,0.00
2019-02-26T02:52:04.145Z,0.00
2019-02-26T02:53:04.032Z,0.00
2019-02-26T02:54:03.293Z,0.00
2019-02-26T02:55:04.583Z,0.00
2019-02-26T02:56:03.738Z,0.00
2019-02-26T02:57:05.382Z,0.00
2019-02-26T02:58:03.143Z,0.00
2019-02-26T02:59:05.393Z,0.00
2019-02-26T03:00:05.582Z,0.00
2019-02-26T03:01:03.035Z,0.00
2019-02-26T03:02:02.992Z,0.00
2019-02-26T03:03:02.959Z,0.00
2019-02-26T03:04:02.917Z,0.00
2019-02-26T03:05:02.894Z,0.00
2019-02-26T03:06:04.908Z,0.00
2019-02-26T03:07:03.222Z,0.00
2019-02-26T03:08:02.776Z,0.00
2019-02-26T03:09:02.733Z,0.00
2019-02-26T03:10:06.116Z,0.00
2019-02-26T03:11:02.653Z,0.00
2019-02-26T03:12:02.631Z,0.00
2019-02-26T03:13:02.958Z,0.00
2019-02-26T03:14:02.545Z,0.00
2019-02-26T03:15:05.014Z,0.00
2019-02-26T03:16:02.482Z,0.00
2019-02-26T03:17:02.439Z,0.00
2019-02-26T03:18:04.166Z,0.00
2019-02-26T03:19:04.147Z,0.00
2019-02-26T03:20:04.914Z,0.00
2019-02-26T03:21:04.771Z,0.00
2019-02-26T03:22:02.249Z,0.00
2019-02-26T03:23:04.096Z,0.00
2019-02-26T03:24:03.515Z,0.00
2019-02-26T03:25:02.553Z,0.00
2019-02-26T03:26:02.114Z,0.00
2019-02-26T03:27:02.076Z,0.00
2019-02-26T03:28:02.033Z,0.00
2019-02-26T03:29:01.993Z,0.00
2019-02-26T03:30:02.272Z,0.00
2019-02-26T03:31:01.916Z,0.00
2019-02-26T03:32:01.901Z,0.00
2019-02-26T03:33:04.335Z,0.00
2019-02-26T03:34:08.779Z,0.00
2019-02-26T03:35:04.760Z,0.00
2019-02-26T03:36:05.442Z,0.00
2019-02-26T03:37:03.748Z,0.00
2019-02-26T03:38:03.571Z,0.00
2019-02-26T03:39:02.813Z,0.00
2019-02-26T03:40:03.651Z,0.00
2019-02-26T03:41:03.625Z,0.00
2019-02-26T03:42:01.509Z,0.00
2019-02-26T03:43:04.420Z,0.00
2019-02-26T03:44:03.321Z,0.00
2019-02-26T03:45:02.902Z,0.00
2019-02-26T03:46:01.354Z,0.00
2019-02-26T03:47:01.316Z,0.00
2019-02-26T03:48:01.276Z,0.00
2019-02-26T03:49:02.707Z,0.00
2019-02-26T03:50:01.218Z,0.00
2019-02-26T03:51:01.486Z,0.00
2019-02-26T03:52:01.132Z,0.00
2019-02-26T03:53:01.097Z,0.00
2019-02-26T03:54:01.056Z,0.00
2019-02-26T03:55:03.477Z,0.00
2019-02-26T03:56:04.270Z,0.00
2019-02-26T03:57:00.945Z,0.00
2019-02-26T03:58:02.121Z,0.00
2019-02-26T03:59:04.008Z,0.00
2019-02-26T04:00:05.608Z,0.00
2019-02-26T04:01:04.489Z,0.00
2019-02-26T04:02:00.764Z,0.00
2019-02-26T04:03:00.733Z,0.00
2019-02-26T04:04:02.458Z,0.00
2019-02-26T04:05:02.920Z,0.00
2019-02-26T04:06:02.916Z,0.00
2019-02-26T04:07:01.460Z,0.00
2019-02-26T04:08:01.594Z,0.00
2019-02-26T04:09:00.497Z,0.00
2019-02-26T04:10:00.461Z,0.00
2019-02-26T04:11:01.941Z,0.00
2019-02-26T04:12:00.387Z,0.00
2019-02-26T04:13:00.342Z,0.00
2019-02-26T04:14:00.331Z,0.00
2019-02-26T04:15:00.416Z,0.00
2019-02-26T04:16:02.222Z,0.00
2019-02-26T04:17:01.635Z,0.00
2019-02-26T04:18:00.158Z,0.00
2019-02-26T04:19:00.133Z,0.00
2019-02-26T04:20:02.644Z,0.00
2019-02-26T04:21:03.688Z,0.00
2019-02-26T04:22:00.007Z,0.00
2019-02-26T04:22:59.970Z,0.00
2019-02-26T04:24:00.996Z,0.00
2019-02-26T04:25:04.546Z,0.00
2019-02-26T04:26:01.662Z,0.00
2019-02-26T04:26:59.822Z,0.00
2019-02-26T04:28:01.752Z,0.00
2019-02-26T04:28:59.754Z,0.00
2019-02-26T04:29:59.700Z,0.00
2019-02-26T04:30:59.671Z,0.00
2019-02-26T04:31:59.631Z,0.00
2019-02-26T04:33:01.383Z,0.00
2019-02-26T04:34:01.816Z,0.00
2019-02-26T04:35:01.968Z,0.00
2019-02-26T04:35:59.484Z,0.00
2019-02-26T04:37:01.428Z,0.00
2019-02-26T04:38:01.003Z,0.00
2019-02-26T04:38:59.366Z,0.00
2019-02-26T04:40:01.459Z,0.00
2019-02-26T04:41:00.509Z,0.00
2019-02-26T04:41:59.259Z,0.00
2019-02-26T04:42:59.908Z,0.00
2019-02-26T04:44:01.311Z,0.00
2019-02-26T04:45:02.138Z,0.00
2019-02-26T04:45:59.387Z,0.00
2019-02-26T04:47:00.199Z,0.00
2019-02-26T04:48:00.746Z,0.00
2019-02-26T04:48:58.998Z,0.00
2019-02-26T04:50:00.529Z,0.00
2019-02-26T04:50:58.927Z,0.00
2019-02-26T04:51:58.889Z,0.00
2019-02-26T04:53:01.945Z,0.00
2019-02-26T04:53:59.513Z,0.00
2019-02-26T04:54:58.781Z,0.00
2019-02-26T04:55:59.877Z,0.00
2019-02-26T04:56:58.700Z,0.00
2019-02-26T04:57:58.666Z,0.00
2019-02-26T04:58:58.617Z,0.00
2019-02-26T05:00:01.042Z,0.00
2019-02-26T05:00:58.549Z,0.00
2019-02-26T05:01:58.505Z,0.00
2019-02-26T05:02:58.478Z,0.00
2019-02-26T05:03:58.435Z,0.00
2019-02-26T05:04:58.390Z,0.00
2019-02-26T05:06:00.161Z,0.00
2019-02-26T05:06:58.322Z,0.00
2019-02-26T05:07:58.288Z,0.00
2019-02-26T05:09:00.180Z,0.00
2019-02-26T05:09:59.382Z,0.00
2019-02-26T05:11:00.028Z,0.00
2019-02-26T05:11:58.134Z,0.00
2019-02-26T05:13:02.718Z,0.00
2019-02-26T05:13:58.058Z,0.00
2019-02-26T05:14:58.023Z,0.00
2019-02-26T05:15:57.990Z,0.00
2019-02-26T05:16:57.949Z,0.00
2019-02-26T05:17:57.904Z,0.00
2019-02-26T05:18:58.458Z,0.00
2019-02-26T05:19:57.837Z,0.00
2019-02-26T05:20:59.313Z,0.00
2019-02-26T05:21:59.363Z,0.00
2019-02-26T05:23:00.456Z,0.00
2019-02-26T05:24:00.055Z,0.00
2019-02-26T05:24:57.647Z,0.00
2019-02-26T05:26:02.963Z,0.00
2019-02-26T05:26:57.567Z,0.00
2019-02-26T05:27:57.537Z,0.00
2019-02-26T05:28:57.499Z,0.00
2019-02-26T05:29:57.464Z,0.00
2019-02-26T05:30:57.437Z,0.00
2019-02-26T05:31:58.821Z,0.00
2019-02-26T05:33:00.221Z,0.00
2019-02-26T05:33:59.929Z,0.00
2019-02-26T05:34:57.285Z,0.00
2019-02-26T05:35:57.236Z,0.00
2019-02-26T05:36:59.657Z,0.00
2019-02-26T05:38:00.367Z,0.00
2019-02-26T05:38:59.586Z,0.00
2019-02-26T05:39:57.084Z,0.00
2019-02-26T05:40:57.047Z,0.00
2019-02-26T05:41:58.909Z,0.00
2019-02-26T05:42:58.883Z,0.00
2019-02-26T05:43:58.281Z,0.00
2019-02-26T05:44:59.923Z,0.00
2019-02-26T05:45:58.128Z,0.00
2019-02-26T05:46:58.716Z,0.00
2019-02-26T05:47:58.782Z,0.00
2019-02-26T05:48:56.747Z,0.00
2019-02-26T05:49:56.707Z,0.00
2019-02-26T05:50:57.521Z,0.00
2019-02-26T05:51:58.664Z,0.00
2019-02-26T05:53:01.025Z,0.00
2019-02-26T05:53:56.562Z,0.00
2019-02-26T05:54:56.522Z,0.00
2019-02-26T05:55:56.480Z,0.00
2019-02-26T05:56:56.446Z,0.00
2019-02-26T05:57:56.404Z,0.00
2019-02-26T05:58:56.376Z,0.00
2019-02-26T05:59:56.337Z,0.00
2019-02-26T06:00:56.298Z,4.00
2019-02-26T06:01:58.425Z,4.00
2019-02-26T06:02:56.211Z,4.00
2019-02-26T06:03:56.184Z,4.00
2019-02-26T06:04:56.149Z,4.00
2019-02-26T06:05:58.281Z,8.00
2019-02-26T06:06:57.199Z,8.00
2019-02-26T06:07:56.031Z,8.00
2019-02-26T06:08:57.983Z,12.00
2019-02-26T06:09:57.235Z,12.00
2019-02-26T06:10:55.929Z,12.00
2019-02-26T06:11:55.872Z,16.00
2019-02-26T06:12:55.837Z,20.00
2019-02-26T06:13:58.339Z,24.00
2019-02-26T06:15:00.305Z,24.00
2019-02-26T06:15:58.552Z,28.00
2019-02-26T06:16:55.902Z,32.00
2019-02-26T06:17:55.959Z,36.00
2019-02-26T06:18:55.616Z,40.00
2019-02-26T06:19:57.237Z,48.00
2019-02-26T06:20:56.710Z,56.00
2019-02-26T06:21:56.621Z,64.00
2019-02-26T06:22:55.463Z,72.00
2019-02-26T06:23:55.421Z,76.00
2019-02-26T06:24:59.562Z,84.00
2019-02-26T06:25:57.777Z,96.00
2019-02-26T06:26:55.324Z,104.00
2019-02-26T06:27:55.277Z,116.00
2019-02-26T06:28:55.237Z,128.00
2019-02-26T06:29:57.491Z,144.00
2019-02-26T06:30:55.237Z,156.00
2019-02-26T06:31:55.122Z,172.00
2019-02-26T06:32:59.560Z,188.00
2019-02-26T06:33:55.042Z,200.00
2019-02-26T06:34:55.021Z,220.00
2019-02-26T06:35:57.044Z,240.00
2019-02-26T06:36:54.934Z,256.00
2019-02-26T06:37:54.887Z,272.00
2019-02-26T06:38:56.469Z,288.00
2019-02-26T06:39:57.293Z,308.00
2019-02-26T06:40:54.778Z,324.00
2019-02-26T06:41:54.743Z,340.00
2019-02-26T06:42:54.697Z,356.00
2019-02-26T06:43:55.121Z,376.00
2019-02-26T06:44:54.627Z,392.00
2019-02-26T06:45:54.584Z,408.00
2019-02-26T06:46:54.555Z,424.00
2019-02-26T06:47:56.310Z,440.00
2019-02-26T06:48:54.480Z,456.00
2019-02-26T06:49:54.442Z,476.00
2019-02-26T06:50:55.643Z,492.00
2019-02-26T06:51:54.357Z,512.00
2019-02-26T06:52:54.327Z,524.00
2019-02-26T06:53:56.507Z,540.00
2019-02-26T06:54:57.529Z,556.00
2019-02-26T06:55:54.218Z,572.00
2019-02-26T06:56:54.181Z,588.00
2019-02-26T06:57:55.204Z,604.00
2019-02-26T06:58:54.094Z,616.00
2019-02-26T06:59:57.971Z,632.00
2019-02-26T07:00:55.484Z,644.00
2019-02-26T07:01:56.035Z,660.00
2019-02-26T07:02:53.954Z,668.00
2019-02-26T07:03:56.115Z,680.00
2019-02-26T07:04:53.873Z,692.00
2019-02-26T07:05:53.840Z,708.00
2019-02-26T07:06:55.368Z,724.00
2019-02-26T07:07:55.057Z,740.00
2019-02-26T07:08:53.723Z,752.00
2019-02-26T07:09:57.436Z,768.00
2019-02-26T07:10:53.638Z,788.00
2019-02-26T07:11:53.606Z,804.00
2019-02-26T07:12:53.559Z,824.00
2019-02-26T07:13:53.892Z,844.00
2019-02-26T07:14:55.357Z,856.00
2019-02-26T07:15:53.454Z,868.00
2019-02-26T07:16:53.424Z,880.00
2019-02-26T07:17:53.386Z,900.00
2019-02-26T07:18:53.344Z,912.00
2019-02-26T07:19:55.456Z,932.00
2019-02-26T07:20:55.955Z,952.00
2019-02-26T07:21:53.231Z,976.00
2019-02-26T07:22:53.196Z,996.00
2019-02-26T07:23:54.589Z,1016.00
2019-02-26T07:24:53.975Z,1028.00
2019-02-26T07:25:53.086Z,1040.00
2019-02-26T07:26:53.045Z,1052.00
2019-02-26T07:27:53.600Z,1064.00
2019-02-26T07:28:52.975Z,1072.00
2019-02-26T07:29:52.929Z,1080.00
2019-02-26T07:30:52.891Z,1092.00
2019-02-26T07:31:54.196Z,1108.00
2019-02-26T07:32:52.811Z,1124.00
2019-02-26T07:33:53.396Z,1148.00
2019-02-26T07:34:52.750Z,1172.00
2019-02-26T07:35:54.397Z,1192.00
2019-02-26T07:36:52.662Z,1212.00
2019-02-26T07:37:54.465Z,1236.00
2019-02-26T07:38:54.660Z,1252.00
2019-02-26T07:39:52.560Z,1272.00
2019-02-26T07:40:54.187Z,1292.00
2019-02-26T07:41:54.323Z,1316.00
2019-02-26T07:42:52.446Z,1344.00
2019-02-26T07:43:54.569Z,1364.00
2019-02-26T07:44:52.376Z,1384.00
2019-02-26T07:45:52.330Z,1412.00
2019-02-26T07:46:52.302Z,1432.00
2019-02-26T07:47:54.067Z,1456.00
2019-02-26T07:48:53.992Z,1476.00
2019-02-26T07:49:52.195Z,1492.00
2019-02-26T07:50:52.148Z,1508.00
2019-02-26T07:51:52.116Z,1524.00
2019-02-26T07:52:52.655Z,1544.00
2019-02-26T07:53:54.287Z,1556.00
2019-02-26T07:54:52.010Z,1564.00
2019-02-26T07:55:51.961Z,1584.00
2019-02-26T07:56:52.498Z,1608.00
2019-02-26T07:57:53.186Z,1620.00
2019-02-26T07:58:51.848Z,1636.00
2019-02-26T07:59:51.810Z,1648.00
2019-02-26T08:00:52.331Z,1668.00
2019-02-26T08:01:51.747Z,1680.00
2019-02-26T08:02:53.989Z,1692.00
2019-02-26T08:03:53.250Z,1708.00
2019-02-26T08:04:51.626Z,1716.00
2019-02-26T08:05:51.588Z,1728.00
2019-02-26T08:06:52.411Z,1744.00
2019-02-26T08:07:53.886Z,1760.00
2019-02-26T08:08:51.479Z,1772.00
2019-02-26T08:09:51.455Z,1780.00
2019-02-26T08:10:53.146Z,1792.00
2019-02-26T08:11:51.372Z,1800.00
2019-02-26T08:12:51.343Z,1816.00
2019-02-26T08:13:51.717Z,1824.00
2019-02-26T08:14:51.266Z,1836.00
2019-02-26T08:15:52.736Z,1840.00
2019-02-26T08:16:53.665Z,1852.00
2019-02-26T08:17:55.406Z,1864.00
2019-02-26T08:18:52.172Z,1872.00
2019-02-26T08:19:51.083Z,1884.00
2019-02-26T08:20:52.736Z,1900.00
2019-02-26T08:21:53.201Z,1912.00
2019-02-26T08:22:51.643Z,1924.00
2019-02-26T08:23:52.725Z,1936.00
2019-02-26T08:24:52.713Z,1956.00
2019-02-26T08:25:52.375Z,1964.00
2019-02-26T08:26:50.833Z,1976.00
2019-02-26T08:27:52.172Z,1996.00
2019-02-26T08:28:50.752Z,2000.00
2019-02-26T08:29:51.718Z,2008.00
2019-02-26T08:30:52.881Z,2012.00
2019-02-26T08:31:52.118Z,2032.00
2019-02-26T08:32:53.478Z,2040.00
2019-02-26T08:33:51.767Z,2048.00
2019-02-26T08:34:50.537Z,2052.00
2019-02-26T08:35:50.500Z,2072.00
2019-02-26T08:36:50.460Z,2100.00
2019-02-26T08:37:50.433Z,2132.00
2019-02-26T08:38:52.032Z,2124.00
2019-02-26T08:39:50.349Z,2140.00
2019-02-26T08:40:50.309Z,2188.00
2019-02-26T08:41:50.283Z,2232.00
2019-02-26T08:42:50.243Z,2252.00
2019-02-26T08:43:51.601Z,2272.00
2019-02-26T08:44:51.224Z,2304.00
2019-02-26T08:45:50.139Z,2320.00
2019-02-26T08:46:50.101Z,2332.00
2019-02-26T08:47:50.061Z,2344.00
2019-02-26T08:48:50.832Z,2352.00
2019-02-26T08:49:49.986Z,2364.00
2019-02-26T08:50:49.952Z,2380.00
2019-02-26T08:51:49.924Z,2388.00
2019-02-26T08:52:52.733Z,2396.00
2019-02-26T08:53:51.734Z,2416.00
2019-02-26T08:54:49.809Z,2424.00
2019-02-26T08:55:51.544Z,2436.00
2019-02-26T08:56:49.736Z,2448.00
2019-02-26T08:57:51.976Z,2452.00
2019-02-26T08:58:49.667Z,2452.00
2019-02-26T08:59:51.843Z,2468.00
2019-02-26T09:00:49.600Z,2488.00
2019-02-26T09:01:49.552Z,2488.00
2019-02-26T09:02:53.799Z,2480.00
2019-02-26T09:03:50.700Z,2500.00
2019-02-26T09:04:49.451Z,2524.00
2019-02-26T09:05:51.124Z,2540.00
2019-02-26T09:06:50.557Z,2560.00
2019-02-26T09:07:50.544Z,2568.00
2019-02-26T09:08:49.311Z,2580.00
2019-02-26T09:09:50.042Z,2596.00
2019-02-26T09:10:49.256Z,2608.00
2019-02-26T09:11:50.278Z,2620.00
2019-02-26T09:12:51.685Z,2632.00
2019-02-26T09:13:49.131Z,2648.00
2019-02-26T09:14:49.972Z,2664.00
2019-02-26T09:15:49.061Z,2680.00
2019-02-26T09:16:51.968Z,2692.00
2019-02-26T09:17:49.000Z,2700.00
2019-02-26T09:18:48.950Z,2720.00
2019-02-26T09:19:50.880Z,2732.00
2019-02-26T09:20:48.886Z,2744.00
2019-02-26T09:21:50.536Z,2764.00
2019-02-26T09:22:52.962Z,2780.00
2019-02-26T09:23:49.917Z,2796.00
2019-02-26T09:24:49.464Z,2796.00
2019-02-26T09:25:51.491Z,2788.00
2019-02-26T09:26:49.394Z,2788.00
2019-02-26T09:27:48.638Z,2784.00
2019-02-26T09:28:50.084Z,2812.00
2019-02-26T09:29:51.297Z,2828.00
2019-02-26T09:30:48.537Z,2848.00
2019-02-26T09:31:48.501Z,2864.00
2019-02-26T09:32:48.468Z,2892.00
2019-02-26T09:33:48.442Z,2916.00
2019-02-26T09:34:48.406Z,2936.00
2019-02-26T09:35:49.851Z,2952.00
2019-02-26T09:36:50.689Z,2980.00
2019-02-26T09:37:52.067Z,3000.00
2019-02-26T09:38:49.632Z,3020.00
2019-02-26T09:39:48.237Z,3044.00
2019-02-26T09:40:50.102Z,3052.00
2019-02-26T09:41:48.167Z,3076.00
2019-02-26T09:42:51.702Z,3092.00
2019-02-26T09:43:48.180Z,3128.00
2019-02-26T09:44:50.159Z,3160.00
2019-02-26T09:45:48.772Z,3176.00
2019-02-26T09:46:48.009Z,3192.00
2019-02-26T09:47:49.669Z,3204.00
2019-02-26T09:48:47.919Z,3224.00
2019-02-26T09:49:49.525Z,3252.00
2019-02-26T09:50:48.693Z,3280.00
2019-02-26T09:51:47.813Z,3308.00
2019-02-26T09:52:50.252Z,3336.00
2019-02-26T09:53:50.255Z,3388.00
2019-02-26T09:54:48.250Z,3472.00
2019-02-26T09:55:47.685Z,3632.00
2019-02-26T09:56:47.649Z,6760.00
2019-02-26T09:57:47.619Z,35488.00
2019-02-26T09:58:48.353Z,76992.00
2019-02-26T09:59:49.183Z,105280.00
2019-02-26T10:00:48.005Z,110624.00
2019-02-26T10:01:47.488Z,108800.00
2019-02-26T10:02:49.386Z,108672.00
2019-02-26T10:03:47.431Z,106272.00
2019-02-26T10:04:49.451Z,101088.00
2019-02-26T10:05:48.191Z,92352.00
2019-02-26T10:06:47.579Z,102784.00
2019-02-26T10:07:47.308Z,112704.00
2019-02-26T10:08:49.088Z,109568.00
2019-02-26T10:09:48.421Z,109408.00
2019-02-26T10:10:47.220Z,110784.00
2019-02-26T10:11:49.171Z,111008.00
2019-02-26T10:12:47.164Z,110848.00
2019-02-26T10:13:48.978Z,107168.00
2019-02-26T10:14:47.124Z,108576.00
2019-02-26T10:15:47.094Z,113664.00
2019-02-26T10:16:49.243Z,113824.00
2019-02-26T10:17:47.044Z,113984.00
2019-02-26T10:18:47.856Z,113088.00
2019-02-26T10:19:46.994Z,110592.00
2019-02-26T10:20:47.627Z,111360.00
2019-02-26T10:21:46.955Z,111776.00
2019-02-26T10:22:46.925Z,110880.00
2019-02-26T10:23:49.268Z,110848.00
2019-02-26T10:24:46.880Z,110848.00
2019-02-26T10:25:46.849Z,111904.00
2019-02-26T10:26:46.826Z,112928.00
2019-02-26T10:27:47.900Z,112384.00
2019-02-26T10:28:51.669Z,110080.00
2019-02-26T10:29:47.627Z,109952.00
2019-02-26T10:30:46.751Z,110912.00
2019-02-26T10:31:46.728Z,110464.00
2019-02-26T10:32:47.022Z,110400.00
2019-02-26T10:33:48.939Z,111424.00
2019-02-26T10:34:46.670Z,112160.00
2019-02-26T10:35:47.974Z,110464.00
2019-02-26T10:36:49.314Z,112704.00
2019-02-26T10:37:46.617Z,113728.00
2019-02-26T10:38:46.601Z,111136.00
2019-02-26T10:39:47.969Z,110624.00
2019-02-26T10:40:53.958Z,111168.00
2019-02-26T10:41:46.733Z,111104.00
2019-02-26T10:42:46.853Z,111200.00
2019-02-26T10:43:46.507Z,111648.00
2019-02-26T10:44:46.477Z,111136.00
2019-02-26T10:45:47.604Z,112800.00
2019-02-26T10:46:46.438Z,112608.00
2019-02-26T10:47:46.961Z,112000.00
2019-02-26T10:48:48.049Z,112032.00
2019-02-26T10:49:46.822Z,111552.00
2019-02-26T10:50:49.107Z,111712.00
2019-02-26T10:51:46.345Z,111744.00
2019-02-26T10:52:46.326Z,110624.00
2019-02-26T10:53:46.307Z,110656.00
2019-02-26T10:54:46.610Z,111008.00
2019-02-26T10:55:46.278Z,110560.00
2019-02-26T10:56:46.261Z,109824.00
2019-02-26T10:57:47.782Z,109920.00
2019-02-26T10:58:46.222Z,108768.00
2019-02-26T10:59:46.208Z,110720.00
2019-02-26T11:00:46.177Z,113024.00
2019-02-26T11:01:46.768Z,111552.00
2019-02-26T11:02:48.031Z,110496.00
2019-02-26T11:03:47.223Z,111872.00
2019-02-26T11:04:49.268Z,112128.00
2019-02-26T11:05:48.749Z,112416.00
2019-02-26T11:06:46.933Z,112288.00
2019-02-26T11:07:46.075Z,112224.00
2019-02-26T11:08:47.516Z,112640.00
2019-02-26T11:09:49.404Z,113536.00
2019-02-26T11:10:47.864Z,109952.00
2019-02-26T11:11:46.003Z,110944.00
2019-02-26T11:12:48.011Z,109856.00
2019-02-26T11:13:51.003Z,107872.00
2019-02-26T11:14:45.951Z,110784.00
2019-02-26T11:15:48.226Z,109984.00
2019-02-26T11:16:45.912Z,111232.00
2019-02-26T11:17:47.851Z,109984.00
2019-02-26T11:18:47.679Z,108544.00
2019-02-26T11:19:45.866Z,110336.00
2019-02-26T11:20:47.856Z,111424.00
2019-02-26T11:21:47.439Z,111264.00
2019-02-26T11:22:47.198Z,111136.00
2019-02-26T11:23:46.466Z,108448.00
2019-02-26T11:24:45.783Z,107584.00
2019-02-26T11:25:45.769Z,107040.00
2019-02-26T11:26:45.765Z,107808.00
2019-02-26T11:27:46.755Z,108416.00
2019-02-26T11:28:47.770Z,108352.00
2019-02-26T11:29:45.723Z,107072.00
2019-02-26T11:30:46.637Z,106880.00
2019-02-26T11:31:47.713Z,106272.00
2019-02-26T11:32:45.649Z,105120.00
2019-02-26T11:33:45.638Z,104096.00
2019-02-26T11:34:45.628Z,106464.00
2019-02-26T11:35:47.117Z,107168.00
2019-02-26T11:36:45.588Z,105312.00
2019-02-26T11:38:47.068Z,106688.00
2019-02-26T11:39:45.542Z,106304.00
2019-02-26T11:40:45.523Z,105536.00
2019-02-26T11:41:45.507Z,105728.00
2019-02-26T11:42:46.730Z,105952.00
2019-02-26T11:43:45.483Z,106560.00
2019-02-26T11:44:45.450Z,106336.00
2019-02-26T11:45:45.442Z,104096.00
2019-02-26T11:46:48.172Z,104960.00
2019-02-26T11:47:45.413Z,104608.00
2019-02-26T11:48:47.468Z,105504.00
2019-02-26T11:49:46.692Z,104288.00
2019-02-26T11:50:45.360Z,103104.00
2019-02-26T11:51:45.348Z,100672.00
2019-02-26T11:52:45.325Z,99904.00
2019-02-26T11:53:45.780Z,100096.00
2019-02-26T11:54:45.293Z,99488.00
2019-02-26T11:55:45.273Z,99104.00
2019-02-26T11:56:47.149Z,100544.00
2019-02-26T11:57:47.370Z,101120.00
2019-02-26T11:58:45.230Z,100384.00
2019-02-26T11:59:45.205Z,98016.00
2019-02-26T12:00:47.627Z,95264.00
2019-02-26T12:01:45.179Z,97024.00
2019-02-26T12:02:45.169Z,92256.00
2019-02-26T12:03:45.140Z,92928.00
2019-02-26T12:04:45.126Z,93120.00
2019-02-26T12:05:45.116Z,93312.00
2019-02-26T12:06:45.085Z,92928.00
2019-02-26T12:07:46.129Z,89920.00
2019-02-26T12:08:47.214Z,87264.00
2019-02-26T12:09:45.041Z,89280.00
2019-02-26T12:10:45.029Z,88352.00
2019-02-26T12:11:45.011Z,88224.00
2019-02-26T12:12:45.005Z,64928.00
2019-02-26T12:13:47.229Z,30720.00
2019-02-26T12:14:47.960Z,21824.00
2019-02-26T12:15:44.926Z,21088.00
2019-02-26T12:16:44.906Z,20544.00
2019-02-26T12:17:46.122Z,19872.00
2019-02-26T12:18:46.867Z,19744.00
2019-02-26T12:19:44.867Z,19232.00
2019-02-26T12:20:48.069Z,19104.00
2019-02-26T12:21:44.813Z,18784.00
2019-02-26T12:22:46.975Z,18624.00
2019-02-26T12:23:46.754Z,17792.00
2019-02-26T12:24:44.766Z,17888.00
2019-02-26T12:25:44.756Z,19872.00
2019-02-26T12:26:47.008Z,21344.00
2019-02-26T12:27:45.619Z,22048.00
2019-02-26T12:28:44.690Z,21312.00
2019-02-26T12:29:45.567Z,20320.00
2019-02-26T12:30:46.582Z,20960.00
2019-02-26T12:31:44.637Z,22208.00
2019-02-26T12:32:47.224Z,27744.00
2019-02-26T12:33:44.602Z,45152.00